createdAt,value
2023-04-21T00:00:29.428Z,4.67
2023-04-21T00:02:56.987Z,4.40
2023-04-21T00:05:24.742Z,4.73
2023-04-21T00:07:52.520Z,5.67
2023-04-21T00:10:19.924Z,5.60
2023-04-21T00:12:47.340Z,4.70
2023-04-21T00:15:14.957Z,4.40
2023-04-21T00:17:43.872Z,4.80
2023-04-21T00:20:11.755Z,4.10
2023-04-21T00:22:39.156Z,4.67
2023-04-21T00:25:07.085Z,4.23
2023-04-21T00:27:34.416Z,4.43
2023-04-21T00:30:01.824Z,4.30
2023-04-21T00:32:29.233Z,4.67
2023-04-21T00:34:59.490Z,5.10
2023-04-21T00:37:26.855Z,3.73
2023-04-21T00:39:54.231Z,4.40
2023-04-21T00:42:21.625Z,4.10
2023-04-21T00:44:49.042Z,4.57
2023-04-21T00:47:16.477Z,4.70
2023-04-21T00:49:43.930Z,5.07
2023-04-21T00:52:12.680Z,4.80
2023-04-21T00:54:40.590Z,4.60
2023-04-21T00:57:08.362Z,4.70
2023-04-21T00:59:36.083Z,4.50
2023-04-21T01:02:04.140Z,5.03
2023-04-21T01:04:35.400Z,5.13
2023-04-21T01:07:04.913Z,5.07
2023-04-21T01:09:34.166Z,4.77
2023-04-21T01:12:04.610Z,4.83
2023-04-21T01:14:34.343Z,4.97
2023-04-21T01:17:01.847Z,4.53
2023-04-21T01:19:31.189Z,4.70
2023-04-21T01:22:00.581Z,4.80
2023-04-21T01:24:36.233Z,5.00
2023-04-21T01:27:04.215Z,4.97
2023-04-21T01:29:33.519Z,4.80
2023-04-21T01:32:04.781Z,5.20
2023-04-21T01:34:32.155Z,5.00
2023-04-21T01:37:00.953Z,5.10
2023-04-21T01:39:28.767Z,5.60
2023-04-21T01:41:57.715Z,5.97
2023-04-21T01:44:25.910Z,5.60
2023-04-21T01:46:53.456Z,5.00
2023-04-21T01:49:21.142Z,5.50
2023-04-21T01:51:49.315Z,5.73
2023-04-21T01:54:18.042Z,5.70
2023-04-21T01:56:45.544Z,5.83
2023-04-21T01:59:13.146Z,5.17
2023-04-21T02:01:40.574Z,5.67
2023-04-21T02:04:08.169Z,5.67
2023-04-21T02:06:36.184Z,5.70
2023-04-21T02:09:03.590Z,5.97
2023-04-21T02:11:33.696Z,6.30
2023-04-21T02:14:01.557Z,6.10
2023-04-21T02:16:29.048Z,6.07
2023-04-21T02:18:57.054Z,6.57
2023-04-21T02:21:24.508Z,6.40
2023-04-21T02:23:52.500Z,6.90
2023-04-21T02:26:20.581Z,6.73
2023-04-21T02:28:49.574Z,6.90
2023-04-21T02:31:16.990Z,6.90
2023-04-21T02:33:44.509Z,7.43
2023-04-21T02:36:12.400Z,7.47
2023-04-21T02:38:39.797Z,7.17
2023-04-21T02:41:10.612Z,7.43
2023-04-21T02:43:38.028Z,7.53
2023-04-21T02:46:08.510Z,7.83
2023-04-21T02:48:36.083Z,7.73
2023-04-21T02:51:04.286Z,7.60
2023-04-21T02:53:32.077Z,8.10
2023-04-21T02:56:02.253Z,8.00
2023-04-21T02:58:31.189Z,7.80
2023-04-21T03:00:58.632Z,8.40
2023-04-21T03:03:27.549Z,8.17
2023-04-21T03:05:57.263Z,8.77
2023-04-21T03:08:24.679Z,8.87
2023-04-21T03:10:52.097Z,9.80
2023-04-21T03:13:23.306Z,10.23
2023-04-21T03:15:52.051Z,10.00
2023-04-21T03:18:19.586Z,9.90
2023-04-21T03:20:48.557Z,9.77
2023-04-21T03:23:16.632Z,10.90
2023-04-21T03:25:44.116Z,10.97
2023-04-21T03:28:11.555Z,11.13
2023-04-21T03:30:38.984Z,11.37
2023-04-21T03:33:06.490Z,11.17
2023-04-21T03:35:35.189Z,11.20
2023-04-21T03:38:04.405Z,11.43
2023-04-21T03:40:31.828Z,10.87
2023-04-21T03:42:59.297Z,10.30
2023-04-21T03:45:26.649Z,10.30
2023-04-21T03:47:54.710Z,10.13
2023-04-21T03:50:22.187Z,9.77
2023-04-21T03:52:49.562Z,10.23
2023-04-21T03:55:18.351Z,9.80
2023-04-21T03:57:45.784Z,9.70
2023-04-21T04:00:13.804Z,10.13
2023-04-21T04:02:41.488Z,9.70
2023-04-21T04:05:09.309Z,10.27
2023-04-21T04:07:37.220Z,10.53
2023-04-21T04:10:05.770Z,9.93
2023-04-21T04:12:34.567Z,10.20
2023-04-21T04:15:02.685Z,10.47
2023-04-21T04:17:30.108Z,10.53
2023-04-21T04:19:57.604Z,9.97
2023-04-21T04:22:25.025Z,10.10
2023-04-21T04:24:53.090Z,10.30
2023-04-21T04:27:20.914Z,10.33
2023-04-21T04:29:49.784Z,13.03
2023-04-21T04:32:17.525Z,10.67
2023-04-21T04:34:45.111Z,10.60
2023-04-21T04:37:13.109Z,10.37
2023-04-21T04:39:40.523Z,10.27
2023-04-21T04:42:08.863Z,10.50
2023-04-21T04:44:36.908Z,10.13
2023-04-21T04:47:06.093Z,11.23
2023-04-21T04:49:33.756Z,10.60
2023-04-21T04:52:01.896Z,10.77
2023-04-21T04:54:29.894Z,12.20
2023-04-21T04:56:58.635Z,19.43
2023-04-21T04:59:26.305Z,14.63
2023-04-21T05:01:54.506Z,12.30
2023-04-21T05:04:23.907Z,11.80
2023-04-21T05:06:51.984Z,13.63
2023-04-21T05:09:19.372Z,22.90
2023-04-21T05:11:46.773Z,24.53
2023-04-21T05:14:14.159Z,22.73
2023-04-21T05:16:41.911Z,20.97
2023-04-21T05:19:09.348Z,18.07
2023-04-21T05:21:38.054Z,13.00
2023-04-21T05:24:05.623Z,11.80
2023-04-21T05:26:32.995Z,12.70
2023-04-21T05:29:00.407Z,13.57
2023-04-21T05:31:27.902Z,12.60
2023-04-21T05:33:55.298Z,11.73
2023-04-21T05:36:24.779Z,12.27
2023-04-21T05:38:53.947Z,12.20
2023-04-21T05:41:22.443Z,13.50
2023-04-21T05:43:49.858Z,14.87
2023-04-21T05:46:17.260Z,13.63
2023-04-21T05:48:44.713Z,14.77
2023-04-21T05:51:13.057Z,12.77
2023-04-21T05:53:40.574Z,12.90
2023-04-21T05:56:10.696Z,11.53
2023-04-21T05:58:38.281Z,12.03
2023-04-21T06:01:06.227Z,12.03
2023-04-21T06:03:34.446Z,11.60
2023-04-21T06:06:03.339Z,11.67
2023-04-21T06:08:30.789Z,12.20
2023-04-21T06:10:58.199Z,12.00
2023-04-21T06:13:27.665Z,11.37
2023-04-21T06:15:55.316Z,11.07
2023-04-21T06:18:23.981Z,11.73
2023-04-21T06:20:51.698Z,11.20
2023-04-21T06:23:19.121Z,11.47
2023-04-21T06:25:46.532Z,11.53
2023-04-21T06:28:13.945Z,11.27
2023-04-21T06:30:44.805Z,11.00
2023-04-21T06:33:12.165Z,11.03
2023-04-21T06:35:39.522Z,10.80
2023-04-21T06:38:09.195Z,11.37
2023-04-21T06:40:36.541Z,10.70
2023-04-21T06:43:03.951Z,10.47
2023-04-21T06:45:31.337Z,10.70
2023-04-21T06:48:00.124Z,10.20
2023-04-21T06:50:27.986Z,9.27
2023-04-21T06:52:55.476Z,9.77
2023-04-21T06:55:22.847Z,8.93
2023-04-21T06:57:50.197Z,8.80
2023-04-21T07:00:18.096Z,9.10
2023-04-21T07:02:45.590Z,9.57
2023-04-21T07:05:14.404Z,9.60
2023-04-21T07:07:41.748Z,10.20
2023-04-21T07:10:09.742Z,9.30
2023-04-21T07:12:37.185Z,9.50
2023-04-21T07:15:04.844Z,9.60
2023-04-21T07:17:32.407Z,7.90
2023-04-21T07:19:59.886Z,8.60
2023-04-21T07:22:28.613Z,8.70
2023-04-21T07:24:55.984Z,9.00
2023-04-21T07:27:23.546Z,8.60
2023-04-21T07:29:50.963Z,8.50
2023-04-21T07:32:18.757Z,8.50
2023-04-21T07:34:48.327Z,8.83
2023-04-21T07:37:16.297Z,8.40
2023-04-21T07:39:45.265Z,8.33
2023-04-21T07:42:12.655Z,9.00
2023-04-21T07:44:40.320Z,8.83
2023-04-21T07:47:07.729Z,8.83
2023-04-21T07:49:35.222Z,9.77
2023-04-21T07:52:02.785Z,8.63
2023-04-21T07:54:31.628Z,8.07
2023-04-21T07:57:01.842Z,9.07
2023-04-21T07:59:29.244Z,9.90
2023-04-21T08:01:56.669Z,8.40
2023-04-21T08:04:24.434Z,8.87
2023-04-21T08:06:52.282Z,9.03
2023-04-21T08:09:20.168Z,8.83
2023-04-21T08:11:48.173Z,8.03
2023-04-21T08:14:17.013Z,8.83
2023-04-21T08:16:44.721Z,8.67
2023-04-21T08:19:12.198Z,8.60
2023-04-21T08:21:40.364Z,15.80
2023-04-21T08:24:07.911Z,9.53
2023-04-21T08:26:35.925Z,8.60
2023-04-21T08:29:04.534Z,8.90
2023-04-21T08:31:33.781Z,9.70
2023-04-21T08:34:03.062Z,9.37
2023-04-21T08:36:31.580Z,8.80
2023-04-21T08:38:59.279Z,8.73
2023-04-21T08:41:27.411Z,9.20
2023-04-21T08:43:54.867Z,9.23
2023-04-21T08:46:22.733Z,9.33
2023-04-21T08:48:53.108Z,9.07
2023-04-21T08:51:23.939Z,9.20
2023-04-21T08:53:51.886Z,9.67
2023-04-21T08:56:19.298Z,9.43
2023-04-21T08:58:46.682Z,9.20
2023-04-21T09:01:14.267Z,8.77
2023-04-21T09:03:41.910Z,9.00
2023-04-21T09:06:12.745Z,9.23
2023-04-21T09:08:42.843Z,10.77
2023-04-21T09:11:14.246Z,8.60
2023-04-21T09:13:43.501Z,8.97
2023-04-21T09:16:16.474Z,8.60
2023-04-21T09:18:44.879Z,8.60
2023-04-21T09:21:14.445Z,9.10
2023-04-21T09:23:42.458Z,8.33
2023-04-21T09:26:10.025Z,9.27
2023-04-21T09:28:37.556Z,9.33
2023-04-21T09:31:05.036Z,9.13
2023-04-21T09:33:42.683Z,8.47
2023-04-21T09:36:23.696Z,8.73
2023-04-21T09:39:00.453Z,9.50
2023-04-21T09:41:39.787Z,8.20
2023-04-21T09:44:07.355Z,8.70
2023-04-21T09:46:36.787Z,7.43
2023-04-21T09:49:04.978Z,8.63
2023-04-21T09:54:27.735Z,8.70
2023-04-21T09:56:57.609Z,8.27
2023-04-21T09:59:27.466Z,8.70
2023-04-21T10:01:56.323Z,7.87
2023-04-21T10:04:26.477Z,8.67
2023-04-21T10:06:55.559Z,9.00
2023-04-21T10:09:24.556Z,8.93
2023-04-21T10:11:52.541Z,8.63
2023-04-21T10:14:20.489Z,8.23
2023-04-21T10:16:56.776Z,8.00
2023-04-21T10:19:25.198Z,8.47
2023-04-21T10:21:53.128Z,8.83
2023-04-21T10:24:22.123Z,8.47
2023-04-21T10:26:54.037Z,8.40
2023-04-21T10:29:34.711Z,8.57
2023-04-21T10:32:09.501Z,8.47
2023-04-21T10:34:37.475Z,8.67
2023-04-21T10:37:12.806Z,7.53
2023-04-21T10:39:52.705Z,8.60
2023-04-21T10:42:22.901Z,7.23
2023-04-21T10:44:54.418Z,7.60
2023-04-21T10:47:28.003Z,7.87
2023-04-21T10:49:57.020Z,8.13
2023-04-21T10:52:31.748Z,8.37
2023-04-21T10:55:07.816Z,8.47
2023-04-21T10:57:36.257Z,7.50
2023-04-21T11:00:06.615Z,8.30
2023-04-21T11:02:36.539Z,8.20
2023-04-21T11:05:06.468Z,7.70
2023-04-21T11:07:34.148Z,8.20
2023-04-21T11:10:02.752Z,7.87
2023-04-21T11:12:32.173Z,8.13
2023-04-21T11:14:59.650Z,8.07
2023-04-21T11:17:27.143Z,7.87
2023-04-21T11:19:55.248Z,7.93
2023-04-21T11:22:23.599Z,8.03
2023-04-21T11:24:51.914Z,7.80
2023-04-21T11:27:19.446Z,8.40
2023-04-21T11:29:48.148Z,8.47
2023-04-21T11:32:15.871Z,8.20
2023-04-21T11:34:43.632Z,8.07
2023-04-21T11:37:11.751Z,7.50
2023-04-21T11:39:41.605Z,9.07
2023-04-21T11:42:09.009Z,8.83
2023-04-21T11:44:36.912Z,8.30
2023-04-21T11:47:15.552Z,8.17
2023-04-21T11:49:47.300Z,8.23
2023-04-21T11:52:21.493Z,7.90
2023-04-21T11:54:49.028Z,7.00
2023-04-21T11:57:19.019Z,7.63
2023-04-21T11:59:46.556Z,7.50
2023-04-21T12:02:21.982Z,7.87
2023-04-21T12:04:57.900Z,7.40
2023-04-21T12:07:25.442Z,6.83
2023-04-21T12:09:53.374Z,7.37
2023-04-21T12:12:20.741Z,6.57
2023-04-21T12:14:48.159Z,7.00
2023-04-21T12:17:16.863Z,7.80
2023-04-21T12:19:44.467Z,7.30
2023-04-21T12:22:12.401Z,7.30
2023-04-21T12:24:40.025Z,7.33
2023-04-21T12:27:07.815Z,6.70
2023-04-21T12:29:37.384Z,6.70
2023-04-21T12:32:05.229Z,6.70
2023-04-21T12:34:34.208Z,7.97
2023-04-21T12:37:01.865Z,6.83
2023-04-21T12:39:30.123Z,7.03
2023-04-21T12:41:57.927Z,6.63
2023-04-21T12:44:25.801Z,6.83
2023-04-21T12:46:53.246Z,7.60
2023-04-21T12:49:20.920Z,7.63
2023-04-21T12:51:49.922Z,7.23
2023-04-21T12:54:17.395Z,7.73
2023-04-21T12:56:45.077Z,7.43
2023-04-21T12:59:12.607Z,7.63
2023-04-21T13:01:41.248Z,7.47
2023-04-21T13:04:09.435Z,8.00
2023-04-21T13:06:39.024Z,8.10
2023-04-21T13:09:08.274Z,8.20
2023-04-21T13:11:35.757Z,8.00
2023-04-21T13:14:04.003Z,7.80
2023-04-21T13:16:31.659Z,7.67
2023-04-21T13:18:59.376Z,6.80
2023-04-21T13:21:27.763Z,7.13
2023-04-21T13:23:56.089Z,7.47
2023-04-21T13:26:24.974Z,6.47
2023-04-21T13:28:52.422Z,6.87
2023-04-21T13:31:19.817Z,6.60
2023-04-21T13:33:47.284Z,6.43
2023-04-21T13:36:14.679Z,6.67
2023-04-21T13:38:42.900Z,6.97
2023-04-21T13:41:10.406Z,7.47
2023-04-21T13:43:39.203Z,7.43
2023-04-21T13:46:06.768Z,6.67
2023-04-21T13:48:34.265Z,6.60
2023-04-21T13:51:01.818Z,6.63
2023-04-21T13:53:29.248Z,6.37
2023-04-21T13:55:57.444Z,5.50
2023-04-21T13:58:24.882Z,6.37
2023-04-21T14:00:53.656Z,5.67
2023-04-21T14:03:21.268Z,5.97
2023-04-21T14:05:48.865Z,5.20
2023-04-21T14:08:16.403Z,5.73
2023-04-21T14:10:43.849Z,5.37
2023-04-21T14:13:17.284Z,5.27
2023-04-21T14:15:56.054Z,5.10
2023-04-21T14:18:23.772Z,4.80
2023-04-21T14:20:51.270Z,5.03
2023-04-21T14:23:18.734Z,4.17
2023-04-21T14:25:46.201Z,3.97
2023-04-21T14:28:13.604Z,4.70
2023-04-21T14:30:42.820Z,5.03
2023-04-21T14:33:11.696Z,4.10
2023-04-21T14:35:39.160Z,4.20
2023-04-21T14:38:06.611Z,4.63
2023-04-21T14:40:34.045Z,4.10
2023-04-21T14:43:01.491Z,4.10
2023-04-21T14:45:29.048Z,3.97
2023-04-21T14:47:56.533Z,4.67
2023-04-21T14:50:25.402Z,3.57
2023-04-21T14:52:52.805Z,4.07
2023-04-21T14:55:20.353Z,4.10
2023-04-21T14:57:47.794Z,3.83
2023-04-21T15:00:15.619Z,4.40
2023-04-21T15:02:43.261Z,4.13
2023-04-21T15:05:10.878Z,4.03
2023-04-21T15:07:40.467Z,4.43
2023-04-21T15:10:08.717Z,4.27
2023-04-21T15:12:36.563Z,4.67
2023-04-21T15:15:04.459Z,4.03
2023-04-21T15:17:32.035Z,4.60
2023-04-21T15:19:59.642Z,4.80
2023-04-21T15:22:27.247Z,5.27
2023-04-21T15:24:56.070Z,5.27
2023-04-21T15:27:23.427Z,5.67
2023-04-21T15:29:50.806Z,5.57
2023-04-21T15:32:18.362Z,5.30
2023-04-21T15:34:45.878Z,5.17
2023-04-21T15:37:14.384Z,4.53
2023-04-21T15:39:41.921Z,4.97
2023-04-21T15:42:10.775Z,5.03
2023-04-21T15:44:39.437Z,5.00
2023-04-21T15:47:07.294Z,4.10
2023-04-21T15:49:35.425Z,4.30
2023-04-21T15:52:03.215Z,4.53
2023-04-21T15:54:31.154Z,4.30
2023-04-21T15:56:58.541Z,4.37
2023-04-21T15:59:27.287Z,4.10
2023-04-21T16:01:56.657Z,4.70
2023-04-21T16:04:24.434Z,4.60
2023-04-21T16:06:52.021Z,4.80
2023-04-21T16:09:21.092Z,4.93
2023-04-21T16:11:49.894Z,4.63
2023-04-21T16:14:17.331Z,4.60
2023-04-21T16:16:46.539Z,5.03
2023-04-21T16:19:14.028Z,5.73
2023-04-21T16:21:42.250Z,5.30
2023-04-21T16:24:09.858Z,6.83
2023-04-21T16:26:37.514Z,5.50
2023-04-21T16:29:04.989Z,5.20
2023-04-21T16:31:32.404Z,5.20
2023-04-21T16:34:01.705Z,5.30
2023-04-21T16:36:30.959Z,5.63
2023-04-21T16:38:58.384Z,5.07
2023-04-21T16:41:25.934Z,4.87
2023-04-21T16:43:53.377Z,5.80
2023-04-21T16:46:20.827Z,5.30
2023-04-21T16:48:48.316Z,5.37
2023-04-21T16:51:17.383Z,5.80
2023-04-21T16:53:44.764Z,6.60
2023-04-21T16:56:12.199Z,6.53
2023-04-21T16:58:39.608Z,5.77
2023-04-21T17:01:07.413Z,6.20
2023-04-21T17:03:35.142Z,7.53
2023-04-21T17:06:04.528Z,6.00
2023-04-21T17:08:33.238Z,6.33
2023-04-21T17:11:00.603Z,6.13
2023-04-21T17:13:28.315Z,5.90
2023-04-21T17:15:56.025Z,5.87
2023-04-21T17:18:23.417Z,6.20
2023-04-21T17:20:50.792Z,5.70
2023-04-21T17:23:18.234Z,5.07
2023-04-21T17:25:46.989Z,5.70
2023-04-21T17:28:15.245Z,5.57
2023-04-21T17:30:42.665Z,5.13
2023-04-21T17:35:55.726Z,5.97
2023-04-21T17:38:29.393Z,6.73
2023-04-21T17:40:58.164Z,5.97
2023-04-21T17:43:25.587Z,5.90
2023-04-21T17:45:53.221Z,6.10
2023-04-21T17:48:20.954Z,5.80
2023-04-21T17:50:48.378Z,5.40
2023-04-21T17:53:16.240Z,5.13
2023-04-21T17:55:43.669Z,5.33
2023-04-21T17:58:12.717Z,5.13
2023-04-21T18:00:40.782Z,5.17
2023-04-21T18:03:08.408Z,4.33
2023-04-21T18:05:36.114Z,4.50
2023-04-21T18:08:03.567Z,4.50
2023-04-21T18:10:31.043Z,4.60
2023-04-21T18:12:58.396Z,4.23
2023-04-21T18:15:27.105Z,18.70
2023-04-21T18:17:54.608Z,10.50
2023-04-21T18:20:22.020Z,6.33
2023-04-21T18:22:51.717Z,4.20
2023-04-21T18:25:30.735Z,4.10
2023-04-21T18:28:07.276Z,3.73
2023-04-21T18:30:36.031Z,4.03
2023-04-21T18:33:03.532Z,3.93
2023-04-21T18:35:32.962Z,4.80
2023-04-21T18:38:00.598Z,4.17
2023-04-21T18:40:28.068Z,5.63
2023-04-21T18:42:55.579Z,4.70
2023-04-21T18:45:22.946Z,5.20
2023-04-21T18:47:51.736Z,4.93
2023-04-21T18:50:19.252Z,4.40
2023-04-21T18:52:46.632Z,4.43
2023-04-21T18:55:14.630Z,5.03
2023-04-21T18:57:41.986Z,4.90
2023-04-21T19:00:10.955Z,4.90
2023-04-21T19:02:39.413Z,6.43
2023-04-21T19:05:08.648Z,5.10
2023-04-21T19:07:36.107Z,6.43
2023-04-21T19:10:03.556Z,5.60
2023-04-21T19:12:30.933Z,5.67
2023-04-21T19:14:58.336Z,5.10
2023-04-21T19:17:25.881Z,5.20
2023-04-21T19:19:53.272Z,4.67
2023-04-21T19:22:22.045Z,5.87
2023-04-21T19:24:49.539Z,6.77
2023-04-21T19:27:16.915Z,7.83
2023-04-21T19:29:44.293Z,10.37
2023-04-21T19:32:11.852Z,10.20
2023-04-21T19:34:39.607Z,13.07
2023-04-21T19:37:07.248Z,10.07
2023-04-21T19:39:36.034Z,9.83
2023-04-21T19:42:03.436Z,10.97
2023-04-21T19:44:31.180Z,10.43
2023-04-21T19:46:58.599Z,8.30
2023-04-21T19:49:26.043Z,7.53
2023-04-21T19:51:53.387Z,7.67
2023-04-21T19:54:20.836Z,7.50
2023-04-21T19:56:49.694Z,7.43
2023-04-21T19:59:17.303Z,6.90
2023-04-21T20:01:44.787Z,6.80
2023-04-21T20:04:12.608Z,6.43
2023-04-21T20:06:40.201Z,6.33
2023-04-21T20:09:08.074Z,6.63
2023-04-21T20:11:35.554Z,6.83
2023-04-21T20:14:04.431Z,6.03
2023-04-21T20:16:32.768Z,6.30
2023-04-21T20:19:00.228Z,6.73
2023-04-21T20:21:28.722Z,6.73
2023-04-21T20:23:56.186Z,6.53
2023-04-21T20:26:23.882Z,7.30
2023-04-21T20:28:51.298Z,6.50
2023-04-21T20:31:23.508Z,7.13
2023-04-21T20:33:51.047Z,7.73
2023-04-21T20:36:18.577Z,7.53
2023-04-21T20:38:49.267Z,7.90
2023-04-21T20:41:16.673Z,8.07
2023-04-21T20:43:44.078Z,8.20
2023-04-21T20:46:11.586Z,7.33
2023-04-21T20:48:40.732Z,7.10
2023-04-21T20:51:08.616Z,7.00
2023-04-21T20:53:36.026Z,7.53
2023-04-21T20:56:03.417Z,7.70
2023-04-21T20:58:31.052Z,7.70
2023-04-21T21:00:58.487Z,7.57
2023-04-21T21:03:26.119Z,7.10
2023-04-21T21:05:54.963Z,7.57
2023-04-21T21:08:22.377Z,7.57
2023-04-21T21:10:49.723Z,7.50
2023-04-21T21:13:17.350Z,7.17
2023-04-21T21:15:44.765Z,7.43
2023-04-21T21:18:12.395Z,7.80
2023-04-21T21:20:40.032Z,7.00
2023-04-21T21:23:08.859Z,7.07
2023-04-21T21:25:36.335Z,6.53
2023-04-21T21:28:03.880Z,6.97
2023-04-21T21:30:31.275Z,6.77
2023-04-21T21:32:58.649Z,6.40
2023-04-21T21:35:26.030Z,5.80
2023-04-21T21:37:53.468Z,6.90
2023-04-21T21:40:22.243Z,6.77
2023-04-21T21:42:49.621Z,6.87
2023-04-21T21:45:17.157Z,5.90
2023-04-21T21:47:45.892Z,6.97
2023-04-21T21:50:13.529Z,7.50
2023-04-21T21:52:40.982Z,6.83
2023-04-21T21:55:08.830Z,6.03
2023-04-21T21:57:37.750Z,6.40
2023-04-21T22:00:07.567Z,6.50
2023-04-21T22:02:35.887Z,6.90
2023-04-21T22:05:04.306Z,6.47
2023-04-21T22:07:31.715Z,6.30
2023-04-21T22:09:59.630Z,7.03
2023-04-21T22:12:27.032Z,6.73
2023-04-21T22:14:55.762Z,5.83
2023-04-21T22:17:24.833Z,6.07
2023-04-21T22:19:53.717Z,7.03
2023-04-21T22:22:21.168Z,6.93
2023-04-21T22:24:48.556Z,6.63
2023-04-21T22:27:16.076Z,7.07
2023-04-21T22:29:43.506Z,6.90
2023-04-21T22:32:12.263Z,6.70
2023-04-21T22:34:39.673Z,7.10
2023-04-21T22:37:07.043Z,6.73
2023-04-21T22:39:34.621Z,6.47
2023-04-21T22:42:02.379Z,7.70
2023-04-21T22:44:29.809Z,8.23
2023-04-21T22:46:57.252Z,7.27
2023-04-21T22:49:26.227Z,6.57
2023-04-21T22:51:54.298Z,6.70
2023-04-21T22:54:21.759Z,6.20
2023-04-21T22:56:49.235Z,6.27
2023-04-21T22:59:16.668Z,5.80
2023-04-21T23:01:44.081Z,6.00
2023-04-21T23:04:11.609Z,6.50
2023-04-21T23:06:40.425Z,6.37
2023-04-21T23:09:07.820Z,6.53
2023-04-21T23:11:35.248Z,6.60
2023-04-21T23:14:02.591Z,6.87
2023-04-21T23:16:30.029Z,6.37
2023-04-21T23:18:57.448Z,7.57
2023-04-21T23:21:24.901Z,7.20
2023-04-21T23:23:53.666Z,6.33
2023-04-21T23:26:21.515Z,6.73
2023-04-21T23:28:48.848Z,7.33
2023-04-21T23:31:16.248Z,6.70
2023-04-21T23:33:43.685Z,6.97
2023-04-21T23:36:11.188Z,7.30
2023-04-21T23:38:38.610Z,7.57
2023-04-21T23:41:07.336Z,7.23
2023-04-21T23:43:37.028Z,7.67
2023-04-21T23:46:04.440Z,7.53
2023-04-21T23:48:31.825Z,8.00
2023-04-21T23:50:59.280Z,8.40
2023-04-21T23:53:26.688Z,8.20
2023-04-21T23:55:54.071Z,7.77
2023-04-21T23:58:22.799Z,8.30
